Aérodrome :
LOGIN :

S'inscrire | Disclaimer

   EN    FR    IT 

 










Légende :    VFR   VFR Marginal   IFR   IFR Intensif   IFR Très Intensif
Visi : 
Plafond : 
>= 8 km
>= 3000ft
5 à 8 km
1000 à 3000 ft
1500m à 5 km
500 à 1000 ft
800 à 1500m
200 à 500 ft
< 800m
< 200 ft
Symboles :   Orages  Brouillard  Fortes neiges  Fortes précipitations  Vent > 20 kt
SIGMETs :   Divers  Orages  Givrage  Turbulence  Onde Orograph.  Cendres Volcan.






- Altitude de l'aérodrome : 15 ft
- Code IATA : FCO


LIRF - Roma Leonardo da Vinci Fiumicino

DERNIER METAR :
  • 280420Z 32004KT 5000 BR NSC 16/15 Q1016 NOSIG

METARs EXPIRÉS :
  • 280350Z 33003KT 5000 BR NSC 16/16 Q1016 NOSIG
  • 280320Z 31003KT 7000 NSC 17/16 Q1016 NOSIG
  • 280250Z 32004KT CAVOK 16/15 Q1016 NOSIG
  • 280220Z VRB02KT CAVOK 17/16 Q1016 NOSIG
  • 280150Z 33003KT CAVOK 17/16 Q1016 NOSIG

TAF TAF LIRF
Valide du 28 à 00h jusqu'au 29 à 06h UTC


272300Z 2800/2906 VRB05KT 7000 SCT025
TEMPO 2800/2806 3000 BR
BECMG 2810/2812 28012KT
BECMG 2818/2820 VRB05KT



MET'MAP, la Météo Aéronautique d'un coup d'oeil ! - Copyright ORBIFLY Décembre 2007 - Disclaimer

ORBIFLY MET'MAP TEAM :

Programmation & Développement : Alexandra Zaïnal
Sur une idée originale de : Baudouin d'Aumeries
Assistance à la programmation : Marc-Olivier Méhu
Soutien technique & logistique : Manuel Goepfert

Contact : metmap@orbifly.com




SOURCES & CREDITS :

   NOAA